sensor_id;sensor_type;location;lat;lon;timestamp;P1;durP1;ratioP1;P2;durP2;ratioP2
9661;SDS011;24982;52.344;12.990;2022-11-06T18:55:32;3.67;;;3.38;;
9661;SDS011;24982;52.344;12.990;2022-11-06T18:58:34;3.97;;;3.60;;
9661;SDS011;24982;52.344;12.990;2022-11-06T19:01:36;4.13;;;3.72;;
9661;SDS011;24982;52.344;12.990;2022-11-06T19:04:38;4.63;;;3.63;;
9661;SDS011;24982;52.344;12.990;2022-11-06T19:07:40;5.85;;;4.07;;
9661;SDS011;24982;52.344;12.990;2022-11-06T19:10:43;4.30;;;3.88;;
9661;SDS011;24982;52.344;12.990;2022-11-06T19:13:45;4.57;;;4.10;;
9661;SDS011;24982;52.344;12.990;2022-11-06T19:16:47;4.43;;;4.03;;
9661;SDS011;24982;52.344;12.990;2022-11-06T19:19:49;5.03;;;4.53;;
9661;SDS011;24982;52.344;12.990;2022-11-06T19:22:52;4.35;;;3.97;;
9661;SDS011;24982;52.344;12.990;2022-11-06T19:25:57;6.30;;;5.00;;
9661;SDS011;24982;52.344;12.990;2022-11-06T19:29:02;6.80;;;5.68;;
9661;SDS011;24982;52.344;12.990;2022-11-06T19:32:07;7.43;;;6.03;;
9661;SDS011;24982;52.344;12.990;2022-11-06T19:35:12;7.85;;;5.90;;
9661;SDS011;24982;52.344;12.990;2022-11-06T19:38:15;7.30;;;5.90;;
9661;SDS011;24982;52.344;12.990;2022-11-06T19:41:18;7.07;;;5.65;;
9661;SDS011;24982;52.344;12.990;2022-11-06T19:44:20;8.93;;;5.95;;
9661;SDS011;24982;52.344;12.990;2022-11-06T19:47:22;8.52;;;6.20;;
9661;SDS011;24982;52.344;12.990;2022-11-06T19:50:26;7.78;;;5.75;;
9661;SDS011;24982;52.344;12.990;2022-11-06T19:53:29;6.85;;;5.78;;
9661;SDS011;24982;52.344;12.990;2022-11-06T19:56:33;8.77;;;6.72;;
9661;SDS011;24982;52.344;12.990;2022-11-06T19:59:35;8.05;;;6.80;;
9661;SDS011;24982;52.344;12.990;2022-11-06T20:02:37;7.63;;;6.85;;
9661;SDS011;24982;52.344;12.990;2022-11-06T20:05:39;7.43;;;6.38;;
9661;SDS011;24982;52.344;12.990;2022-11-06T20:08:45;9.10;;;6.78;;
9661;SDS011;24982;52.344;12.990;2022-11-06T20:11:51;6.85;;;6.15;;
9661;SDS011;24982;52.344;12.990;2022-11-06T20:14:53;8.93;;;7.40;;
9661;SDS011;24982;52.344;12.990;2022-11-06T20:17:55;7.90;;;6.82;;
9661;SDS011;24982;52.344;12.990;2022-11-06T20:20:58;8.32;;;7.45;;
9661;SDS011;24982;52.344;12.990;2022-11-06T20:24:01;9.25;;;7.60;;
9661;SDS011;24982;52.344;12.990;2022-11-06T20:27:04;8.82;;;7.43;;
9661;SDS011;24982;52.344;12.990;2022-11-06T20:30:07;9.27;;;7.80;;
9661;SDS011;24982;52.344;12.990;2022-11-06T20:33:10;10.48;;;8.30;;
9661;SDS011;24982;52.344;12.990;2022-11-06T20:36:12;8.25;;;7.45;;
9661;SDS011;24982;52.344;12.990;2022-11-06T20:39:16;8.18;;;7.38;;
9661;SDS011;24982;52.344;12.990;2022-11-06T20:42:19;8.60;;;7.70;;
9661;SDS011;24982;52.344;12.990;2022-11-06T20:45:22;8.77;;;7.82;;
9661;SDS011;24982;52.344;12.990;2022-11-06T20:48:24;8.98;;;8.18;;
9661;SDS011;24982;52.344;12.990;2022-11-06T20:51:26;11.75;;;8.02;;
9661;SDS011;24982;52.344;12.990;2022-11-06T20:54:30;9.43;;;8.52;;
9661;SDS011;24982;52.344;12.990;2022-11-06T20:57:33;9.90;;;8.73;;
9661;SDS011;24982;52.344;12.990;2022-11-06T21:00:35;10.07;;;9.00;;
9661;SDS011;24982;52.344;12.990;2022-11-06T21:03:38;11.13;;;8.70;;
9661;SDS011;24982;52.344;12.990;2022-11-06T21:06:40;9.85;;;8.68;;
9661;SDS011;24982;52.344;12.990;2022-11-06T21:09:42;9.68;;;8.50;;
9661;SDS011;24982;52.344;12.990;2022-11-06T21:12:46;10.68;;;9.57;;
9661;SDS011;24982;52.344;12.990;2022-11-06T21:15:48;10.25;;;8.88;;
9661;SDS011;24982;52.344;12.990;2022-11-06T21:18:57;12.90;;;9.80;;
9661;SDS011;24982;52.344;12.990;2022-11-06T21:22:00;10.68;;;9.52;;
9661;SDS011;24982;52.344;12.990;2022-11-06T21:25:01;11.88;;;9.95;;
9661;SDS011;24982;52.344;12.990;2022-11-06T21:28:05;10.55;;;9.43;;
9661;SDS011;24982;52.344;12.990;2022-11-06T21:31:07;12.07;;;9.73;;
9661;SDS011;24982;52.344;12.990;2022-11-06T21:34:11;12.10;;;10.25;;
9661;SDS011;24982;52.344;12.990;2022-11-06T21:37:13;11.13;;;9.75;;
9661;SDS011;24982;52.344;12.990;2022-11-06T21:40:15;11.73;;;9.85;;
9661;SDS011;24982;52.344;12.990;2022-11-06T21:43:18;10.85;;;9.70;;
9661;SDS011;24982;52.344;12.990;2022-11-06T21:46:20;13.95;;;10.90;;
9661;SDS011;24982;52.344;12.990;2022-11-06T21:49:23;12.50;;;10.13;;
9661;SDS011;24982;52.344;12.990;2022-11-06T21:52:25;11.65;;;10.45;;
9661;SDS011;24982;52.344;12.990;2022-11-06T21:55:44;11.70;;;10.02;;
9661;SDS011;24982;52.344;12.990;2022-11-06T21:59:03;12.50;;;10.73;;
9661;SDS011;24982;52.344;12.990;2022-11-06T22:02:07;12.13;;;10.77;;
9661;SDS011;24982;52.344;12.990;2022-11-06T22:05:09;12.60;;;10.65;;
9661;SDS011;24982;52.344;12.990;2022-11-06T22:08:11;12.40;;;10.23;;
9661;SDS011;24982;52.344;12.990;2022-11-06T22:11:14;12.38;;;10.77;;
9661;SDS011;24982;52.344;12.990;2022-11-06T22:14:19;11.45;;;10.20;;
9661;SDS011;24982;52.344;12.990;2022-11-06T22:17:21;10.98;;;9.85;;
9661;SDS011;24982;52.344;12.990;2022-11-06T22:20:23;11.55;;;10.27;;
9661;SDS011;24982;52.344;12.990;2022-11-06T22:23:25;11.32;;;10.15;;
9661;SDS011;24982;52.344;12.990;2022-11-06T22:26:27;11.93;;;10.73;;
9661;SDS011;24982;52.344;12.990;2022-11-06T22:29:32;12.27;;;10.93;;
9661;SDS011;24982;52.344;12.990;2022-11-06T22:32:34;13.00;;;10.70;;
9661;SDS011;24982;52.344;12.990;2022-11-06T22:35:36;12.65;;;10.85;;
9661;SDS011;24982;52.344;12.990;2022-11-06T22:38:39;13.55;;;11.50;;
9661;SDS011;24982;52.344;12.990;2022-11-06T22:41:42;12.88;;;10.52;;
9661;SDS011;24982;52.344;12.990;2022-11-06T22:44:46;13.38;;;10.88;;
9661;SDS011;24982;52.344;12.990;2022-11-06T22:47:48;13.32;;;11.40;;
9661;SDS011;24982;52.344;12.990;2022-11-06T22:50:50;12.65;;;10.85;;
9661;SDS011;24982;52.344;12.990;2022-11-06T22:53:52;16.27;;;11.65;;
9661;SDS011;24982;52.344;12.990;2022-11-06T22:56:54;14.52;;;11.63;;
9661;SDS011;24982;52.344;12.990;2022-11-06T22:59:57;12.82;;;11.25;;
9661;SDS011;24982;52.344;12.990;2022-11-06T23:02:59;14.93;;;11.57;;
9661;SDS011;24982;52.344;12.990;2022-11-06T23:06:02;13.60;;;11.85;;
9661;SDS011;24982;52.344;12.990;2022-11-06T23:09:05;13.95;;;11.10;;
9661;SDS011;24982;52.344;12.990;2022-11-06T23:12:07;12.05;;;10.75;;
9661;SDS011;24982;52.344;12.990;2022-11-06T23:15:10;13.80;;;11.00;;
9661;SDS011;24982;52.344;12.990;2022-11-06T23:18:12;13.10;;;11.45;;
9661;SDS011;24982;52.344;12.990;2022-11-06T23:21:15;13.05;;;10.85;;
9661;SDS011;24982;52.344;12.990;2022-11-06T23:24:19;12.23;;;10.93;;
9661;SDS011;24982;52.344;12.990;2022-11-06T23:27:20;13.57;;;11.13;;
9661;SDS011;24982;52.344;12.990;2022-11-06T23:30:24;14.77;;;11.82;;
9661;SDS011;24982;52.344;12.990;2022-11-06T23:33:29;13.35;;;10.85;;
9661;SDS011;24982;52.344;12.990;2022-11-06T23:36:31;12.52;;;11.10;;
9661;SDS011;24982;52.344;12.990;2022-11-06T23:39:34;12.88;;;11.30;;
9661;SDS011;24982;52.344;12.990;2022-11-06T23:42:36;12.90;;;10.30;;
9661;SDS011;24982;52.344;12.990;2022-11-06T23:45:39;12.32;;;10.77;;
9661;SDS011;24982;52.344;12.990;2022-11-06T23:48:50;15.45;;;11.55;;
9661;SDS011;24982;52.344;12.990;2022-11-06T23:51:52;12.23;;;10.93;;
9661;SDS011;24982;52.344;12.990;2022-11-06T23:54:54;12.07;;;10.80;;
9661;SDS011;24982;52.344;12.990;2022-11-06T23:57:56;14.90;;;11.10;;
